createdAt,value
2019-03-04T00:01:28.311Z,7.30
2019-03-04T00:03:59.117Z,7.03
2019-03-04T00:06:29.783Z,6.20
2019-03-04T00:09:00.578Z,6.97
2019-03-04T00:11:32.821Z,6.40
2019-03-04T00:14:03.882Z,6.53
2019-03-04T00:16:34.561Z,4.50
2019-03-04T00:19:05.318Z,6.00
2019-03-04T00:21:36.070Z,5.13
2019-03-04T00:24:07.017Z,5.70
2019-03-04T00:26:40.768Z,7.83
2019-03-04T00:29:11.504Z,6.17
2019-03-04T00:31:42.305Z,7.43
2019-03-04T00:34:13.073Z,5.17
2019-03-04T00:36:43.867Z,8.80
2019-03-04T00:39:14.847Z,6.50
2019-03-04T00:41:45.594Z,3.70
2019-03-04T00:44:17.374Z,6.57
2019-03-04T00:46:49.169Z,4.33
2019-03-04T00:49:19.879Z,4.13
2019-03-04T00:51:50.609Z,4.10
2019-03-04T00:54:21.487Z,3.47
2019-03-04T00:56:52.259Z,4.70
2019-03-04T00:59:22.970Z,4.90
2019-03-04T01:01:53.709Z,6.03
2019-03-04T01:04:24.386Z,5.40
2019-03-04T01:06:55.420Z,6.20
2019-03-04T01:09:27.805Z,8.87
2019-03-04T01:11:58.665Z,3.43
2019-03-04T01:14:29.337Z,5.50
2019-03-04T01:17:00.093Z,4.17
2019-03-04T01:19:30.814Z,3.90
2019-03-04T01:22:01.575Z,5.80
2019-03-04T01:24:32.310Z,7.07
2019-03-04T01:27:04.536Z,5.80
2019-03-04T01:29:35.175Z,6.47
2019-03-04T01:32:05.898Z,5.73
2019-03-04T01:34:36.774Z,4.83
2019-03-04T01:37:09.320Z,5.03
2019-03-04T01:39:40.082Z,3.23
2019-03-04T01:42:10.825Z,3.20
2019-03-04T01:44:41.490Z,6.13
2019-03-04T01:47:12.242Z,4.23
2019-03-04T01:49:42.910Z,4.53
2019-03-04T02:08:16.991Z,4.70
2019-03-04T02:10:48.745Z,5.73
2019-03-04T02:13:19.487Z,3.87
2019-03-04T02:15:50.285Z,4.47
2019-03-04T02:18:22.458Z,3.60
2019-03-04T02:20:54.582Z,4.87
2019-03-04T02:23:25.370Z,3.70
2019-03-04T02:26:25.489Z,4.60
2019-03-04T02:28:56.618Z,4.30
2019-03-04T02:31:28.396Z,6.77
2019-03-04T02:33:59.172Z,5.80
2019-03-04T02:36:30.751Z,5.10
2019-03-04T02:39:05.016Z,5.03
2019-03-04T02:41:38.867Z,4.47
2019-03-04T02:44:10.126Z,8.57
2019-03-04T02:46:40.930Z,3.80
2019-03-04T02:49:11.679Z,3.00
2019-03-04T02:51:42.422Z,4.10
2019-03-04T02:54:13.187Z,6.77
2019-03-04T02:56:43.942Z,3.13
2019-03-04T02:59:14.614Z,4.73
2019-03-04T03:01:45.267Z,1.93
2019-03-04T03:04:16.021Z,3.33
2019-03-04T03:06:46.827Z,4.13
2019-03-04T03:09:17.673Z,3.50
2019-03-04T03:11:48.685Z,4.73
2019-03-04T03:14:20.459Z,3.50
2019-03-04T03:16:51.206Z,5.70
2019-03-04T03:19:21.984Z,3.23
2019-03-04T03:21:52.718Z,4.33
2019-03-04T03:24:24.352Z,3.10
2019-03-04T03:26:55.175Z,3.37
2019-03-04T03:29:26.738Z,3.00
2019-03-04T03:31:57.547Z,2.47
2019-03-04T03:34:29.235Z,3.63
2019-03-04T03:37:01.658Z,2.30
2019-03-04T03:39:32.616Z,4.97
2019-03-04T03:42:03.605Z,2.73
2019-03-04T03:44:34.337Z,3.27
2019-03-04T03:47:04.995Z,3.00
2019-03-04T03:49:35.894Z,2.60
2019-03-04T03:52:06.873Z,3.20
2019-03-04T03:54:37.559Z,4.83
2019-03-04T03:57:08.306Z,2.30
2019-03-04T03:59:38.980Z,3.77
2019-03-04T04:02:09.703Z,2.80
2019-03-04T04:04:40.489Z,2.50
2019-03-04T04:07:11.231Z,2.73
2019-03-04T04:09:42.027Z,2.20
2019-03-04T04:12:12.873Z,4.80
2019-03-04T04:14:43.526Z,2.47
2019-03-04T04:17:14.201Z,2.57
2019-03-04T04:19:44.977Z,2.33
2019-03-04T04:22:17.280Z,1.80
2019-03-04T04:24:48.078Z,1.57
2019-03-04T04:27:18.832Z,3.40
2019-03-04T04:29:49.590Z,3.60
2019-03-04T04:32:20.328Z,2.40
2019-03-04T04:34:50.969Z,3.80
2019-03-04T04:37:21.833Z,9.37
2019-03-04T04:39:52.517Z,2.63
2019-03-04T04:42:23.246Z,2.10
2019-03-04T04:44:53.894Z,2.17
2019-03-04T04:47:24.671Z,3.67
2019-03-04T04:49:55.380Z,1.37
2019-03-04T04:52:26.524Z,3.07
2019-03-04T04:54:57.328Z,3.10
2019-03-04T04:57:30.196Z,2.20
2019-03-04T05:00:00.900Z,1.93
2019-03-04T05:02:31.882Z,6.00
2019-03-04T05:05:02.498Z,7.67
2019-03-04T05:07:33.423Z,7.30
2019-03-04T05:10:04.571Z,1.80
2019-03-04T05:12:35.272Z,6.67
2019-03-04T05:15:07.322Z,3.83
2019-03-04T05:17:39.696Z,3.73
2019-03-04T05:20:13.591Z,6.73
2019-03-04T05:22:44.815Z,6.00
2019-03-04T05:25:15.518Z,7.93
2019-03-04T05:27:46.551Z,2.40
2019-03-04T05:30:18.587Z,6.47
2019-03-04T05:32:49.284Z,3.87
2019-03-04T05:35:19.972Z,11.80
2019-03-04T05:37:50.863Z,9.63
2019-03-04T05:40:21.662Z,14.27
2019-03-04T05:42:53.006Z,9.47
2019-03-04T05:45:23.850Z,15.53
2019-03-04T05:47:54.575Z,9.50
2019-03-04T05:50:25.303Z,14.07
2019-03-04T05:52:56.011Z,12.47
2019-03-04T05:55:26.667Z,2.77
2019-03-04T05:57:57.374Z,6.60
2019-03-04T06:00:30.395Z,10.20
2019-03-04T06:03:01.195Z,1.13
2019-03-04T06:05:51.889Z,7.43
2019-03-04T06:08:10.810Z,5.40
2019-03-04T06:10:41.930Z,1.43
2019-03-04T06:13:12.809Z,13.23
2019-03-04T06:15:43.518Z,3.00
2019-03-04T06:18:14.251Z,5.03
2019-03-04T06:20:45.286Z,4.03
2019-03-04T06:23:16.074Z,2.10
2019-03-04T06:25:46.903Z,5.07
2019-03-04T06:28:17.614Z,6.57
2019-03-04T06:30:49.331Z,5.07
2019-03-04T06:33:20.183Z,3.80
2019-03-04T06:35:50.962Z,7.13
2019-03-04T06:38:21.929Z,5.17
2019-03-04T06:40:52.960Z,6.33
2019-03-04T06:43:23.819Z,6.23
2019-03-04T06:45:54.814Z,8.23
2019-03-04T06:48:25.775Z,10.57
2019-03-04T06:50:58.136Z,8.93
2019-03-04T06:53:34.004Z,8.33
2019-03-04T06:56:31.706Z,5.53
2019-03-04T06:59:06.866Z,7.70
2019-03-04T07:01:46.008Z,12.43
2019-03-04T07:04:44.211Z,9.20
2019-03-04T07:07:15.017Z,7.73
2019-03-04T07:09:47.462Z,6.30
2019-03-04T07:12:18.420Z,7.90
2019-03-04T07:14:49.365Z,6.30
2019-03-04T07:17:20.230Z,12.00
2019-03-04T07:20:03.356Z,6.67
2019-03-04T07:22:35.297Z,6.33
2019-03-04T07:25:06.657Z,11.40
2019-03-04T07:27:37.399Z,4.83
2019-03-04T07:30:09.557Z,8.63
2019-03-04T07:32:40.987Z,2.40
2019-03-04T07:35:11.995Z,14.07
2019-03-04T07:37:42.751Z,3.33
2019-03-04T07:40:16.319Z,10.47
2019-03-04T07:42:46.847Z,7.27
2019-03-04T07:45:17.646Z,3.17
2019-03-04T07:47:50.287Z,4.73
2019-03-04T07:50:21.160Z,4.10
2019-03-04T07:52:57.703Z,8.73
2019-03-04T07:55:28.501Z,5.13
2019-03-04T07:57:59.861Z,4.70
2019-03-04T08:00:31.026Z,5.17
2019-03-04T08:03:01.797Z,1.83
2019-03-04T08:05:34.008Z,7.47
2019-03-04T08:08:04.823Z,8.70
2019-03-04T08:11:12.097Z,13.20
2019-03-04T08:13:46.726Z,10.30
2019-03-04T08:16:17.535Z,10.73
2019-03-04T08:18:48.377Z,7.67
2019-03-04T08:21:19.118Z,6.63
2019-03-04T08:23:50.000Z,8.70
2019-03-04T08:26:20.797Z,4.47
2019-03-04T08:28:51.611Z,2.73
2019-03-04T08:31:22.467Z,1.47
2019-03-04T08:33:53.322Z,2.07
2019-03-04T08:36:25.713Z,6.37
2019-03-04T08:38:56.468Z,6.20
2019-03-04T08:41:27.198Z,1.90
2019-03-04T08:44:00.021Z,2.37
2019-03-04T08:46:30.723Z,5.20
2019-03-04T08:49:01.416Z,2.90
2019-03-04T08:51:33.176Z,3.10
2019-03-04T08:54:03.941Z,7.37
2019-03-04T08:56:34.562Z,5.10
2019-03-04T08:59:05.286Z,3.50
2019-03-04T09:01:35.973Z,1.90
2019-03-04T09:04:06.757Z,2.40
2019-03-04T09:06:37.472Z,3.80
2019-03-04T09:09:08.506Z,8.47
2019-03-04T09:11:39.402Z,6.57
2019-03-04T09:14:10.209Z,8.03
2019-03-04T09:16:41.439Z,3.37
2019-03-04T09:19:13.734Z,4.63
2019-03-04T09:21:44.483Z,2.20
2019-03-04T09:24:15.224Z,7.07
2019-03-04T09:26:45.954Z,5.13
2019-03-04T09:29:17.852Z,3.67
2019-03-04T09:31:48.661Z,5.23
2019-03-04T09:34:21.024Z,2.37
2019-03-04T09:36:51.792Z,2.53
2019-03-04T09:39:22.585Z,3.87
2019-03-04T09:41:56.886Z,5.20
2019-03-04T09:44:27.524Z,3.97
2019-03-04T09:46:58.379Z,4.27
2019-03-04T09:49:29.162Z,4.53
2019-03-04T09:51:59.903Z,4.77
2019-03-04T09:54:30.726Z,8.60
2019-03-04T09:57:01.465Z,4.17
2019-03-04T09:59:33.213Z,6.87
2019-03-04T10:02:10.624Z,8.77
2019-03-04T10:05:15.811Z,9.43
2019-03-04T10:08:35.375Z,5.87
2019-03-04T10:11:54.638Z,10.17
2019-03-04T10:15:21.087Z,10.17
2019-03-04T10:18:11.066Z,8.20
2019-03-04T10:21:29.497Z,10.67
2019-03-04T10:24:50.395Z,6.10
2019-03-04T10:27:50.332Z,9.70
2019-03-04T10:31:00.602Z,6.53
2019-03-04T10:34:16.731Z,3.97
2019-03-04T10:37:22.849Z,7.33
2019-03-04T10:40:34.194Z,5.13
2019-03-04T10:43:54.962Z,8.90
2019-03-04T10:46:54.626Z,6.83
2019-03-04T10:49:26.853Z,11.67
2019-03-04T10:51:57.537Z,7.33
2019-03-04T10:54:28.176Z,12.70
2019-03-04T10:56:58.856Z,7.40
2019-03-04T10:59:29.561Z,9.83
2019-03-04T11:02:00.290Z,18.60
2019-03-04T11:04:31.035Z,10.47
2019-03-04T11:07:01.771Z,10.53
2019-03-04T11:09:32.519Z,6.57
2019-03-04T11:12:03.287Z,12.20
2019-03-04T11:14:34.990Z,9.40
2019-03-04T11:17:05.696Z,10.43
2019-03-04T11:19:36.607Z,10.50
2019-03-04T11:22:07.361Z,11.57
2019-03-04T11:24:38.100Z,14.50
2019-03-04T11:27:08.815Z,9.93
2019-03-04T11:29:40.598Z,14.17
2019-03-04T11:32:11.295Z,12.30
2019-03-04T11:34:42.765Z,12.63
2019-03-04T11:37:13.523Z,13.03
2019-03-04T11:39:56.457Z,12.20
2019-03-04T11:42:27.061Z,13.87
2019-03-04T11:44:57.832Z,11.07
2019-03-04T11:47:28.527Z,18.93
2019-03-04T11:49:59.319Z,12.87
2019-03-04T11:52:30.030Z,11.87
2019-03-04T11:55:02.297Z,11.30
2019-03-04T11:57:33.204Z,18.03
2019-03-04T12:00:06.042Z,12.73
2019-03-04T12:02:39.372Z,17.33
2019-03-04T12:05:10.868Z,10.23
2019-03-04T12:07:41.559Z,14.57
2019-03-04T12:10:13.143Z,13.80
2019-03-04T12:12:43.858Z,8.00
2019-03-04T12:15:15.799Z,12.27
2019-03-04T12:17:46.575Z,15.37
2019-03-04T12:20:17.808Z,14.00
2019-03-04T12:22:48.645Z,9.80
2019-03-04T12:25:19.470Z,10.43
2019-03-04T12:27:50.190Z,8.47
2019-03-04T12:30:20.923Z,14.77
2019-03-04T12:32:52.210Z,14.63
2019-03-04T12:35:23.123Z,9.30
2019-03-04T12:37:53.827Z,14.50
2019-03-04T12:40:24.656Z,11.20
2019-03-04T12:42:55.305Z,11.53
2019-03-04T12:45:33.972Z,15.87
2019-03-04T12:47:59.534Z,16.53
2019-03-04T12:50:30.275Z,11.47
2019-03-04T12:53:00.987Z,13.67
2019-03-04T12:55:32.647Z,10.80
2019-03-04T12:58:03.391Z,14.60
2019-03-04T13:00:34.255Z,10.37
2019-03-04T13:03:05.066Z,10.07
2019-03-04T13:05:38.225Z,9.73
2019-03-04T13:08:08.986Z,14.67
2019-03-04T13:10:39.742Z,13.37
2019-03-04T13:13:10.458Z,15.90
2019-03-04T13:15:41.205Z,19.70
2019-03-04T13:18:16.305Z,11.90
2019-03-04T13:20:46.378Z,10.20
2019-03-04T13:23:17.079Z,11.63
2019-03-04T13:25:48.479Z,9.77
2019-03-04T13:28:19.263Z,6.37
2019-03-04T13:30:50.014Z,11.90
2019-03-04T13:33:20.783Z,10.03
2019-03-04T13:35:51.533Z,10.23
2019-03-04T13:38:24.241Z,8.70
2019-03-04T13:40:54.975Z,7.73
2019-03-04T13:43:25.860Z,6.97
2019-03-04T13:45:56.965Z,8.93
2019-03-04T13:48:29.243Z,7.77
2019-03-04T13:51:00.094Z,10.83
2019-03-04T13:53:30.816Z,5.60
2019-03-04T13:56:01.552Z,5.37
2019-03-04T13:58:32.269Z,5.73
2019-03-04T14:01:03.130Z,10.67
2019-03-04T14:03:33.932Z,9.03
2019-03-04T14:06:04.718Z,7.03
2019-03-04T14:08:37.036Z,9.90
2019-03-04T14:11:09.027Z,13.87
2019-03-04T14:13:39.923Z,10.13
2019-03-04T14:16:11.361Z,14.00
2019-03-04T14:18:43.591Z,9.33
2019-03-04T14:21:14.864Z,9.80
2019-03-04T14:23:45.622Z,11.13
2019-03-04T14:26:16.472Z,7.10
2019-03-04T14:28:47.229Z,6.83
2019-03-04T14:31:18.034Z,3.10
2019-03-04T14:33:48.704Z,11.93
2019-03-04T14:36:19.419Z,8.13
2019-03-04T14:38:50.305Z,15.83
2019-03-04T14:41:21.118Z,11.13
2019-03-04T14:43:51.958Z,12.83
2019-03-04T14:46:26.109Z,14.83
2019-03-04T14:48:57.013Z,16.07
2019-03-04T14:51:27.832Z,9.07
2019-03-04T14:53:59.670Z,12.93
2019-03-04T14:56:30.405Z,13.03
2019-03-04T14:59:10.525Z,10.83
2019-03-04T15:01:34.389Z,12.80
2019-03-04T15:04:05.338Z,9.00
2019-03-04T15:06:36.111Z,8.87
2019-03-04T15:09:10.290Z,15.47
2019-03-04T15:11:41.106Z,13.23
2019-03-04T15:14:11.852Z,10.03
2019-03-04T15:16:42.843Z,11.33
2019-03-04T15:19:13.619Z,8.03
2019-03-04T15:21:45.992Z,9.60
2019-03-04T15:24:17.570Z,13.97
2019-03-04T15:26:48.350Z,8.83
2019-03-04T15:29:19.556Z,8.33
2019-03-04T15:31:51.990Z,10.73
2019-03-04T15:34:23.685Z,15.10
2019-03-04T15:36:55.220Z,12.40
2019-03-04T15:39:31.627Z,9.30
2019-03-04T15:42:02.585Z,7.83
2019-03-04T15:44:33.848Z,10.37
2019-03-04T15:47:04.615Z,5.57
2019-03-04T15:49:35.395Z,13.37
2019-03-04T15:52:06.871Z,16.00
2019-03-04T15:54:39.767Z,12.23
2019-03-04T15:57:12.883Z,8.10
2019-03-04T15:59:44.970Z,9.77
2019-03-04T16:02:25.097Z,4.83
2019-03-04T16:04:57.527Z,13.47
2019-03-04T16:07:28.353Z,17.33
2019-03-04T16:09:59.107Z,4.97
2019-03-04T16:12:31.664Z,7.93
2019-03-04T16:15:02.658Z,14.43
2019-03-04T16:17:36.323Z,17.17
2019-03-04T16:20:15.935Z,11.63
2019-03-04T16:22:42.832Z,9.90
2019-03-04T16:25:13.408Z,9.73
2019-03-04T16:27:44.741Z,12.47
2019-03-04T16:30:17.588Z,14.33
2019-03-04T16:32:48.604Z,14.20
2019-03-04T16:35:19.704Z,14.90
2019-03-04T16:37:52.024Z,12.33
2019-03-04T16:40:22.779Z,14.00
2019-03-04T16:42:53.621Z,7.23
2019-03-04T16:45:24.579Z,7.73
2019-03-04T16:47:56.278Z,13.10
2019-03-04T16:50:27.162Z,9.23
2019-03-04T16:52:58.073Z,9.13
2019-03-04T16:55:31.182Z,14.97
2019-03-04T16:58:01.935Z,7.10
2019-03-04T17:00:32.772Z,8.50
2019-03-04T17:03:03.606Z,12.57
2019-03-04T17:05:34.389Z,10.67
2019-03-04T17:08:05.694Z,12.63
2019-03-04T17:10:36.496Z,11.23
2019-03-04T17:13:07.352Z,11.63
2019-03-04T17:15:38.380Z,13.27
2019-03-04T17:18:09.365Z,12.93
2019-03-04T17:20:40.053Z,8.47
2019-03-04T17:23:10.919Z,19.73
2019-03-04T17:25:41.709Z,12.40
2019-03-04T17:28:14.290Z,11.00
2019-03-04T17:30:45.311Z,16.53
2019-03-04T17:33:16.281Z,12.53
2019-03-04T17:35:48.130Z,17.60
2019-03-04T17:38:19.025Z,13.93
2019-03-04T17:40:49.811Z,8.17
2019-03-04T17:43:20.742Z,11.57
2019-03-04T17:45:51.646Z,16.77
2019-03-04T17:48:22.417Z,13.57
2019-03-04T17:50:53.247Z,18.97
2019-03-04T17:53:24.181Z,16.60
2019-03-04T17:55:54.962Z,10.40
2019-03-04T17:58:26.107Z,14.47
2019-03-04T18:00:57.210Z,13.50
2019-03-04T18:03:28.179Z,7.33
2019-03-04T18:06:00.639Z,6.07
2019-03-04T18:08:32.921Z,10.07
2019-03-04T18:11:04.349Z,14.83
2019-03-04T18:13:35.594Z,12.63
2019-03-04T18:16:09.019Z,14.97
2019-03-04T18:18:39.605Z,10.37
2019-03-04T18:21:12.219Z,11.50
2019-03-04T18:23:43.658Z,20.97
2019-03-04T18:26:21.408Z,14.27
2019-03-04T18:29:34.871Z,15.70
2019-03-04T18:32:26.113Z,22.07
2019-03-04T18:35:22.301Z,9.40
2019-03-04T18:38:24.907Z,13.60
2019-03-04T18:41:41.605Z,18.17
2019-03-04T18:44:49.062Z,12.63
2019-03-04T18:47:45.366Z,17.07
2019-03-04T18:50:16.426Z,6.83
2019-03-04T18:52:47.190Z,8.00
2019-03-04T18:55:18.040Z,12.90
2019-03-04T18:57:50.093Z,17.07
2019-03-04T19:00:23.798Z,20.30
2019-03-04T19:02:54.495Z,8.83
2019-03-04T19:05:25.668Z,13.63
2019-03-04T19:07:56.349Z,11.07
2019-03-04T19:10:27.299Z,10.93
2019-03-04T19:12:58.226Z,8.23
2019-03-04T19:15:29.018Z,8.37
2019-03-04T19:18:01.287Z,9.63
2019-03-04T19:20:32.272Z,7.10
2019-03-04T19:23:03.246Z,8.50
2019-03-04T19:25:34.072Z,7.27
2019-03-04T19:28:04.835Z,8.47
2019-03-04T19:30:35.704Z,9.23
2019-03-04T19:33:08.393Z,9.33
2019-03-04T19:35:39.326Z,10.63
2019-03-04T19:38:10.909Z,6.23
2019-03-04T19:40:42.151Z,10.70
2019-03-04T19:43:13.173Z,11.67
2019-03-04T19:45:44.279Z,6.67
2019-03-04T19:48:15.446Z,10.43
2019-03-04T19:50:46.334Z,13.10
2019-03-04T19:53:18.720Z,12.13
2019-03-04T19:55:49.867Z,13.07
2019-03-04T19:58:20.621Z,10.30
2019-03-04T20:00:51.670Z,15.67
2019-03-04T20:03:22.835Z,18.63
2019-03-04T20:05:53.772Z,13.43
2019-03-04T20:08:25.748Z,11.30
2019-03-04T20:10:56.528Z,10.90
2019-03-04T20:13:27.502Z,7.67
2019-03-04T20:15:59.222Z,7.13
2019-03-04T20:18:29.977Z,10.30
2019-03-04T20:21:00.783Z,12.20
2019-03-04T20:23:31.623Z,16.00
2019-03-04T20:26:03.980Z,5.93
2019-03-04T20:28:34.826Z,10.30
2019-03-04T20:31:07.130Z,14.97
2019-03-04T20:33:39.366Z,11.47
2019-03-04T20:36:11.149Z,9.17
2019-03-04T20:38:44.709Z,11.43
2019-03-04T20:41:15.549Z,19.30
2019-03-04T20:43:46.470Z,11.67
2019-03-04T20:46:17.946Z,11.27
2019-03-04T20:48:48.902Z,13.40
2019-03-04T20:51:19.756Z,15.13
2019-03-04T20:53:51.658Z,10.87
2019-03-04T20:56:22.433Z,15.90
2019-03-04T20:58:54.750Z,12.50
2019-03-04T21:01:26.618Z,10.43
2019-03-04T21:03:57.674Z,16.90
2019-03-04T21:06:28.483Z,12.17
2019-03-04T21:08:59.976Z,19.60
2019-03-04T21:11:33.198Z,16.73
2019-03-04T21:14:04.526Z,15.93
2019-03-04T21:16:35.375Z,12.47
2019-03-04T21:19:06.189Z,14.00
2019-03-04T21:21:37.038Z,11.80
2019-03-04T21:24:09.326Z,12.23
2019-03-04T21:26:43.400Z,13.83
2019-03-04T21:29:50.918Z,9.93
2019-03-04T21:32:52.230Z,17.87
2019-03-04T21:36:04.970Z,10.80
2019-03-04T21:38:35.920Z,16.10
2019-03-04T21:41:44.239Z,22.53
2019-03-04T21:45:15.632Z,17.70
2019-03-04T21:47:50.115Z,6.90
2019-03-04T21:50:25.439Z,15.47
2019-03-04T21:53:12.899Z,16.60
2019-03-04T21:56:20.143Z,12.00
2019-03-04T21:58:51.019Z,20.07
2019-03-04T22:01:26.401Z,6.70
2019-03-04T22:03:58.758Z,17.17
2019-03-04T22:06:31.218Z,14.53
2019-03-04T22:09:02.166Z,15.73
2019-03-04T22:11:34.893Z,9.13
2019-03-04T22:14:05.807Z,13.47
2019-03-04T22:16:36.662Z,7.83
2019-03-04T22:19:07.389Z,13.17
2019-03-04T22:21:38.252Z,13.40
2019-03-04T22:24:09.076Z,19.87
2019-03-04T22:26:39.810Z,13.03
2019-03-04T22:29:10.674Z,15.43
2019-03-04T22:31:41.487Z,16.83
2019-03-04T22:34:12.265Z,12.87
2019-03-04T22:36:43.373Z,12.80
2019-03-04T22:39:14.157Z,17.87
2019-03-04T22:41:45.037Z,11.53
2019-03-04T22:44:15.845Z,24.13
2019-03-04T22:46:46.732Z,15.30
2019-03-04T22:49:17.464Z,15.27
2019-03-04T22:51:48.224Z,21.77
2019-03-04T22:54:19.005Z,18.40
2019-03-04T22:56:49.783Z,17.07
2019-03-04T22:59:20.889Z,14.73
2019-03-04T23:02:04.901Z,14.50
2019-03-04T23:04:46.205Z,17.73
2019-03-04T23:07:25.414Z,22.13
2019-03-04T23:10:17.402Z,16.20
2019-03-04T23:13:13.991Z,11.23
2019-03-04T23:15:46.731Z,12.30
2019-03-04T23:18:17.549Z,17.43
2019-03-04T23:20:49.247Z,12.70
2019-03-04T23:23:19.924Z,11.03
2019-03-04T23:25:50.821Z,11.57
2019-03-04T23:28:21.630Z,16.47
2019-03-04T23:30:52.426Z,8.73
2019-03-04T23:33:24.663Z,13.13
2019-03-04T23:35:55.418Z,12.97
2019-03-04T23:38:26.061Z,14.07
2019-03-04T23:40:58.325Z,14.43
2019-03-04T23:43:29.186Z,14.30
2019-03-04T23:45:59.956Z,21.40
2019-03-04T23:48:30.746Z,15.50
2019-03-04T23:51:01.602Z,11.47
2019-03-04T23:53:32.828Z,15.33
2019-03-04T23:56:03.555Z,13.60
2019-03-04T23:58:34.349Z,15.93
